Time;durP1;ratioP1;P1;durP2;ratioP2;P2;SDS_P1;SDS_P2;PMS_P1;PMS_P2;Temp;Humidity;BMP_temperature;BMP_pressure;BME280_temperature;BME280_humidity;BME280_pressure;Samples;Min_cycle;Max_cycle;Signal;HPM_P1;HPM_P2
2022/08/06 08:26:22;;;;;;;6.95;6.40;;;;;;;28.99;54.95;99725.38;1752304;79;21703;-64
2022/08/06 08:28:49;;;;;;;8.98;6.85;;;;;;;29.07;54.80;99728.86;1762517;79;21405;-64
2022/08/06 08:31:16;;;;;;;8.05;7.25;;;;;;;29.18;54.09;99723.55;1764170;78;21785;-65
2022/08/06 08:33:43;;;;;;;7.43;6.80;;;;;;;29.27;54.32;99718.37;1748052;80;21089;-63
2022/08/06 08:36:10;;;;;;;7.95;7.10;;;;;;;29.38;53.94;99723.83;1757301;80;21491;-63
2022/08/06 08:38:36;;;;;;;7.45;6.72;;;;;;;29.47;53.58;99720.53;1776402;78;21549;-64
2022/08/06 08:41:12;;;;;;;8.60;7.30;;;;;;;29.62;52.76;99720.53;1777779;78;21663;-64
2022/08/06 08:43:44;;;;;;;7.58;6.95;;;;;;;29.58;52.13;99717.88;1768391;79;21981;-65
2022/08/06 08:46:10;;;;;;;9.75;7.03;;;;;;;29.56;52.96;99717.22;1785879;78;21454;-64
2022/08/06 08:48:37;;;;;;;7.85;6.92;;;;;;;29.62;52.73;99717.30;1710956;78;21561;-63
2022/08/06 08:51:04;;;;;;;7.80;7.03;;;;;;;29.62;52.77;99717.30;1795245;78;21403;-64
2022/08/06 08:53:41;;;;;;;8.20;7.60;;;;;;;29.71;52.56;99718.05;1772159;78;21080;-64
2022/08/06 08:56:08;;;;;;;;;;;;;;;29.72;52.70;99719.72;1781357;78;21666;-64
2022/08/06 08:58:36;;;;;;;8.48;7.40;;;;;;;29.74;53.26;99720.92;1768560;79;20448;-64
2022/08/06 09:01:07;;;;;;;8.25;7.45;;;;;;;29.78;53.08;99718.15;1766082;79;21553;-65
2022/08/06 09:03:36;;;;;;;15.03;8.00;;;;;;;29.86;53.31;99721.61;1768335;79;21455;-64
2022/08/06 09:06:04;;;;;;;9.03;8.13;;;;;;;29.91;52.68;99716.96;1771871;78;21427;-64
2022/08/06 09:08:32;;;;;;;8.80;8.00;;;;;;;29.96;52.53;99719.95;1755248;78;21981;-65
2022/08/06 09:10:59;;;;;;;9.80;8.43;;;;;;;30.02;52.46;99715.64;1758802;78;21562;-66
2022/08/06 09:13:29;;;;;;;8.23;7.53;;;;;;;30.08;52.34;99721.64;1764644;78;21616;-64
2022/08/06 09:15:56;;;;;;;9.70;7.78;;;;;;;30.15;52.04;99722.56;1777000;78;21037;-67
2022/08/06 09:18:24;;;;;;;9.03;8.13;;;;;;;30.16;52.13;99722.05;1786101;77;21448;-65
2022/08/06 09:20:51;;;;;;;8.25;7.42;;;;;;;30.15;51.80;99730.70;1784719;79;21981;-64
2022/08/06 09:23:18;;;;;;;7.92;7.08;;;;;;;30.26;51.50;99734.27;1768184;79;21596;-65
2022/08/06 09:25:50;;;;;;;11.50;7.93;;;;;;;30.33;50.16;99726.75;1782447;77;21539;-64
2022/08/06 09:28:36;;;;;;;7.58;6.80;;;;;;;30.38;49.66;99726.50;1782691;78;21545;-64
2022/08/06 09:31:13;;;;;;;7.35;6.67;;;;;;;30.45;49.07;99715.73;1786506;78;20938;-65
2022/08/06 09:33:42;;;;;;;6.90;6.40;;;;;;;30.50;48.76;99706.50;1769092;77;21782;-65
2022/08/06 09:36:11;;;;;;;7.67;6.97;;;;;;;30.58;48.19;99705.01;1772491;78;21563;-65
2022/08/06 09:38:54;;;;;;;7.90;7.17;;;;;;;30.65;47.60;99708.62;1769687;79;21105;-64
2022/08/06 09:41:22;;;;;;;7.90;7.22;;;;;;;30.47;48.24;99677.05;1774976;78;21530;-65
2022/08/06 09:43:54;;;;;;;8.45;7.65;;;;;;;30.75;48.22;99707.45;1765930;79;21530;-65
2022/08/06 09:46:36;;;;;;;7.75;7.22;;;;;;;30.84;48.51;99707.64;1778613;78;21555;-65
2022/08/06 09:49:03;;;;;;;7.70;7.00;;;;;;;30.90;48.30;99715.52;1766528;79;21552;-65
2022/08/06 09:51:34;;;;;;;8.20;7.55;;;;;;;30.93;47.70;99713.28;1766175;79;21513;-64
2022/08/06 09:53:59;;;;;;;8.80;7.37;;;;;;;30.94;47.63;99712.23;1757291;79;21519;-65
2022/08/06 09:56:26;;;;;;;9.13;7.42;;;;;;;30.93;47.70;99707.86;1776441;77;21423;-65
2022/08/06 09:59:04;;;;;;;7.80;7.10;;;;;;;30.96;47.78;99707.97;1768385;77;21751;-65
2022/08/06 10:01:42;;;;;;;10.20;8.30;;;;;;;31.09;48.09;99712.14;1775484;77;21560;-65
2022/08/06 10:04:14;;;;;;;9.73;7.70;;;;;;;31.26;47.64;99710.48;1768295;78;21449;-66
2022/08/06 10:06:57;;;;;;;8.80;7.83;;;;;;;31.36;46.54;99712.31;1789764;77;21068;-64
2022/08/06 10:09:24;;;;;;;15.32;8.10;;;;;;;31.31;46.58;99706.14;1754955;79;21596;-64
2022/08/06 10:11:52;;;;;;;8.03;7.17;;;;;;;31.29;46.41;99704.14;1753706;78;21975;-63
2022/08/06 10:14:29;;;;;;;8.98;7.55;;;;;;;31.31;45.90;99696.63;1786231;78;21593;-66
2022/08/06 10:17:13;;;;;;;;;;;;;;;31.40;45.92;99700.88;1780044;78;21415;-65
2022/08/06 10:19:43;;;;;;;8.05;7.35;;;;;;;31.47;46.20;99700.92;1767967;79;20144;-65
2022/08/06 10:22:13;;;;;;;7.83;7.15;;;;;;;31.54;45.97;99704.52;1755076;79;21531;-66
2022/08/06 10:24:45;;;;;;;7.47;6.78;;;;;;;31.60;45.75;99695.55;1751871;80;21927;-65
2022/08/06 10:27:16;;;;;;;10.08;6.90;;;;;;;31.68;44.89;99694.55;1757330;79;21535;-63
2022/08/06 10:29:52;;;;;;;7.37;6.72;;;;;;;31.76;44.45;99687.59;1760854;79;21534;-63
2022/08/06 10:32:51;;;;;;;9.80;6.72;;;;;;;31.80;44.42;99691.58;1778941;79;21444;-63
2022/08/06 10:35:17;;;;;;;7.10;6.60;;;;;;;31.81;44.56;99690.52;1743738;79;21076;-64
2022/08/06 10:37:46;;;;;;;7.50;6.83;;;;;;;31.83;44.26;99694.41;1771189;78;21900;-62
2022/08/06 10:40:12;;;;;;;7.20;6.55;;;;;;;31.87;44.41;99693.48;1765387;79;21510;-63
2022/08/06 10:42:39;;;;;;;9.88;7.20;;;;;;;31.85;44.41;99693.67;1741493;80;21494;-64
2022/08/06 10:45:07;;;;;;;8.40;6.60;;;;;;;31.87;44.30;99686.69;1771665;79;21427;-64
2022/08/06 10:47:34;;;;;;;6.92;6.33;;;;;;;31.93;44.62;99690.80;1778106;78;21510;-64
2022/08/06 10:50:01;;;;;;;7.07;6.57;;;;;;;32.08;44.55;99696.11;1760291;79;21901;-64
2022/08/06 10:52:28;;;;;;;6.95;6.25;;;;;;;32.17;43.39;99688.08;1732961;80;21605;-64
2022/08/06 10:54:56;;;;;;;6.28;5.78;;;;;;;32.28;43.27;99693.95;1764909;78;21710;-64
2022/08/06 10:57:22;;;;;;;7.17;6.58;;;;;;;32.41;42.89;99689.89;1748242;79;21468;-64
2022/08/06 10:59:49;;;;;;;5.90;5.30;;;;;;;32.48;42.42;99688.55;1778934;78;21068;-64
2022/08/06 11:02:36;;;;;;;9.53;5.65;;;;;;;32.49;41.39;99684.23;1768619;79;21827;-64
2022/08/06 11:05:08;;;;;;;7.62;6.00;;;;;;;32.45;40.98;99683.52;1779313;78;21411;-64
2022/08/06 11:08:15;;;;;;;5.78;5.28;;;;;;;32.44;41.25;99680.47;1770306;79;21437;-64
2022/08/06 11:11:24;;;;;;;6.20;5.70;;;;;;;32.49;40.88;99684.77;1759372;79;21526;-64
2022/08/06 11:14:07;;;;;;;8.58;6.15;;;;;;;32.52;40.46;99681.11;1766434;77;21460;-64
2022/08/06 11:16:35;;;;;;;6.10;5.60;;;;;;;32.74;40.38;99671.44;1776960;79;22000;-64
2022/08/06 11:19:06;;;;;;;6.95;5.87;;;;;;;32.79;40.67;99667.53;1760104;79;21514;-64
2022/08/06 11:21:43;;;;;;;7.03;6.35;;;;;;;32.91;40.49;99665.05;1774554;78;21543;-64
2022/08/06 11:24:11;;;;;;;9.43;6.03;;;;;;;33.04;40.91;99665.52;1758023;79;21560;-64
2022/08/06 11:26:40;;;;;;;5.80;5.40;;;;;;;33.12;40.61;99658.55;1770968;77;21399;-65
2022/08/06 11:29:08;;;;;;;8.10;5.65;;;;;;;33.14;39.85;99657.80;1778644;78;21805;-64
2022/08/06 11:31:47;;;;;;;5.70;5.17;;;;;;;33.03;40.01;99664.70;1762147;78;21058;-64
2022/08/06 11:34:14;;;;;;;6.30;5.70;;;;;;;33.00;40.28;99668.36;1754269;79;21519;-63
2022/08/06 11:36:56;;;;;;;6.37;5.83;;;;;;;33.09;40.07;99665.73;1743196;79;21412;-64
2022/08/06 11:39:24;;;;;;;6.17;5.47;;;;;;;33.17;39.85;99660.08;1750782;79;21480;-65
2022/08/06 11:41:59;;;;;;;7.85;5.22;;;;;;;33.25;39.50;99661.23;1738098;80;21466;-64
2022/08/06 11:44:32;;;;;;;5.60;5.22;;;;;;;33.39;39.35;99663.38;1743783;80;20978;-63
2022/08/06 11:47:14;;;;;;;9.48;5.33;;;;;;;33.50;39.08;99665.98;1738573;79;21541;-63
2022/08/06 11:49:44;;;;;;;5.60;5.22;;;;;;;33.62;38.86;99667.50;1762140;79;21486;-64
2022/08/06 11:52:34;;;;;;;5.40;5.00;;;;;;;33.63;38.45;99665.92;1754020;80;21451;-63
2022/08/06 11:55:04;;;;;;;5.42;4.92;;;;;;;33.79;38.38;99665.98;1739322;80;21742;-63
2022/08/06 11:57:32;;;;;;;5.22;4.75;;;;;;;33.92;36.95;99655.54;1776640;79;21506;-63
2022/08/06 12:00:03;;;;;;;7.47;4.73;;;;;;;33.94;36.79;99665.20;1769510;78;21517;-65
2022/08/06 12:02:49;;;;;;;8.00;5.10;;;;;;;33.93;36.88;99662.68;1763710;79;21625;-64
2022/08/06 12:05:21;;;;;;;5.30;4.80;;;;;;;34.11;36.85;99666.02;1773725;77;21593;-63
2022/08/06 12:08:20;;;;;;;6.12;5.00;;;;;;;34.12;36.68;99660.35;1745058;79;21813;-63
2022/08/06 12:11:28;;;;;;;8.13;5.05;;;;;;;34.18;36.54;99666.03;1764536;79;21515;-64
2022/08/06 12:13:52;;;;;;;4.95;4.65;;;;;;;34.30;36.27;99662.89;1759421;79;20986;-63
2022/08/06 12:16:35;;;;;;;4.85;4.45;;;;;;;34.44;36.13;99656.83;1765588;79;21470;-64
2022/08/06 12:19:03;;;;;;;5.10;4.80;;;;;;;34.54;35.98;99653.06;1759111;79;21511;-64
2022/08/06 12:21:31;;;;;;;8.08;5.00;;;;;;;34.63;35.67;99657.72;1762644;79;21998;-64
2022/08/06 12:23:57;;;;;;;5.78;4.30;;;;;;;34.65;35.54;99652.88;1781615;77;21044;-64
2022/08/06 12:26:24;;;;;;;5.00;4.60;;;;;;;34.66;35.17;99645.83;1763645;78;21403;-63
2022/08/06 12:28:51;;;;;;;5.25;4.37;;;;;;;34.67;35.10;99651.61;1697768;80;21480;-64
2022/08/06 12:31:32;;;;;;;7.00;4.60;;;;;;;34.62;35.80;99644.61;1788149;78;21495;-63
2022/08/06 12:34:00;;;;;;;6.60;4.85;;;;;;;34.51;35.47;99647.53;1730582;80;22104;-64
2022/08/06 12:36:28;;;;;;;;;;;;;;;34.32;35.70;99649.35;1771612;78;20951;-62
2022/08/06 12:38:57;;;;;;;8.20;4.50;;;;;;;34.21;36.15;99643.74;1760205;78;20292;-64
2022/08/06 12:41:33;;;;;;;8.18;4.58;;;;;;;34.11;36.31;99645.06;1773173;78;20953;-62
2022/08/06 12:43:59;;;;;;;5.22;4.72;;;;;;;34.07;36.37;99646.53;1769501;78;21554;-61
2022/08/06 12:46:26;;;;;;;7.50;5.12;;;;;;;34.10;37.03;99643.91;1770293;78;21877;-62
2022/08/06 12:48:53;;;;;;;5.15;4.65;;;;;;;34.25;37.40;99635.45;1776101;79;21017;-62
2022/08/06 12:51:20;;;;;;;7.12;4.92;;;;;;;34.34;36.66;99639.59;1782696;78;21495;-62
2022/08/06 12:53:53;;;;;;;5.10;4.70;;;;;;;34.38;36.09;99629.03;1775924;78;21938;-63
2022/08/06 12:56:23;;;;;;;6.70;4.85;;;;;;;34.38;35.95;99635.35;1768216;78;21565;-62
2022/08/06 12:58:51;;;;;;;4.80;4.28;;;;;;;34.54;36.22;99631.77;1781871;78;22096;-61
2022/08/06 13:01:22;;;;;;;7.53;4.50;;;;;;;34.73;35.62;99633.50;1793267;79;21554;-62
2022/08/06 13:03:52;;;;;;;6.17;4.50;;;;;;;34.91;35.14;99635.45;1770096;78;21552;-62
2022/08/06 13:06:20;;;;;;;6.33;4.47;;;;;;;35.07;34.20;99632.64;1794439;79;21494;-62
2022/08/06 13:08:47;;;;;;;5.65;4.08;;;;;;;35.17;34.26;99632.11;1757738;79;21408;-62
2022/08/06 13:11:15;;;;;;;5.12;4.58;;;;;;;35.04;34.54;99629.02;1748017;80;21578;-62
2022/08/06 13:13:51;;;;;;;4.53;4.00;;;;;;;35.11;34.53;99628.39;1782756;78;25517;-62
2022/08/06 13:16:18;;;;;;;5.03;4.17;;;;;;;35.17;34.07;99630.23;1774912;78;20995;-62
2022/08/06 13:19:06;;;;;;;4.62;3.92;;;;;;;35.22;33.98;99620.02;1777123;77;21424;-62
2022/08/06 13:21:35;;;;;;;10.13;4.78;;;;;;;35.24;33.51;99625.54;1769356;78;21586;-62
2022/08/06 13:24:01;;;;;;;4.20;3.90;;;;;;;35.19;33.83;99629.51;1755730;78;21947;-62
2022/08/06 13:26:29;;;;;;;6.28;4.83;;;;;;;35.10;33.83;99628.93;1784678;78;21554;-63
2022/08/06 13:29:27;;;;;;;4.47;4.12;;;;;;;35.04;33.80;99624.38;1769507;78;21419;-63
2022/08/06 13:32:09;;;;;;;7.58;4.58;;;;;;;35.08;34.08;99633.79;1740295;78;21426;-62
2022/08/06 13:34:57;;;;;;;6.37;4.15;;;;;;;35.14;33.88;99628.48;1761976;79;21408;-62
2022/08/06 13:37:48;;;;;;;6.50;4.50;;;;;;;35.41;34.30;99624.94;1754977;79;21937;-64
2022/08/06 13:40:16;;;;;;;5.03;3.98;;;;;;;35.74;33.66;99623.72;1775351;79;21589;-62
2022/08/06 13:42:55;;;;;;;4.87;4.58;;;;;;;36.03;33.58;99618.75;1769806;79;21531;-63
2022/08/06 13:45:25;;;;;;;4.85;4.20;;;;;;;36.00;33.29;99621.98;1763209;79;20944;-64
2022/08/06 13:48:08;;;;;;;4.42;3.92;;;;;;;35.84;33.39;99622.63;1738011;80;20979;-64
2022/08/06 13:50:38;;;;;;;4.40;4.10;;;;;;;35.81;33.64;99624.44;1741951;80;21422;-63
2022/08/06 13:53:05;;;;;;;10.05;4.37;;;;;;;35.74;33.89;99622.36;1736076;78;21452;-63
2022/08/06 13:55:31;;;;;;;4.83;4.45;;;;;;;35.49;33.69;99624.64;1756261;79;21080;-63
2022/08/06 13:57:58;;;;;;;8.87;4.43;;;;;;;35.40;33.63;99618.64;1741554;79;21429;-64
2022/08/06 14:00:25;;;;;;;4.40;4.00;;;;;;;35.56;33.87;99616.34;1741673;80;21441;-63
2022/08/06 14:02:54;;;;;;;6.73;4.20;;;;;;;35.76;33.55;99616.12;1761951;78;21781;-63
2022/08/06 14:05:22;;;;;;;6.05;4.17;;;;;;;35.94;33.56;99609.75;1767363;78;21824;-63
2022/08/06 14:07:49;;;;;;;4.40;4.00;;;;;;;36.10;33.28;99613.20;1775234;78;21559;-63
2022/08/06 14:10:17;;;;;;;6.28;4.20;;;;;;;36.48;33.04;99604.31;1782222;78;21053;-64
2022/08/06 14:13:15;;;;;;;4.00;3.70;;;;;;;38.09;30.86;99605.06;1783455;78;21523;-63
2022/08/06 14:15:12;;;;;;;5.45;3.98;;;;;;;39.76;28.42;99599.20;1755581;78;21818;-64
2022/08/06 14:17:39;;;;;;;7.37;3.62;;;;;;;40.95;27.44;99592.80;1758251;78;21497;-63
2022/08/06 14:20:06;;;;;;;4.55;3.98;;;;;;;41.20;27.02;99595.71;1777230;78;21384;-64
2022/08/06 14:22:33;;;;;;;3.92;3.52;;;;;;;40.97;27.02;99591.97;1784564;77;21423;-63
2022/08/06 14:25:00;;;;;;;5.25;3.80;;;;;;;40.43;27.21;99596.58;1787613;78;21755;-63
2022/08/06 14:27:26;;;;;;;4.90;4.28;;;;;;;39.94;28.01;99598.61;1775392;78;22065;-62
2022/08/06 14:29:53;;;;;;;4.58;4.17;;;;;;;39.32;28.04;99597.31;1785695;78;21498;-63
2022/08/06 14:32:20;;;;;;;4.60;3.75;;;;;;;38.90;28.69;99604.72;1774610;77;21508;-63
2022/08/06 14:34:48;;;;;;;4.28;3.98;;;;;;;38.54;29.29;99607.45;1783349;78;21060;-62
2022/08/06 14:37:14;;;;;;;5.65;4.00;;;;;;;38.14;29.33;99607.88;1780330;78;21681;-63
2022/08/06 14:39:41;;;;;;;4.33;3.87;;;;;;;37.92;29.40;99599.52;1786819;78;22061;-63
2022/08/06 14:44:55;;;;;;;6.47;4.03;;;;;;;37.53;30.08;99599.84;1769034;79;21494;-64
2022/08/06 14:47:22;;;;;;;4.30;3.90;;;;;;;37.19;30.51;99598.33;1763797;78;21403;-64
2022/08/06 14:49:49;;;;;;;5.17;4.12;;;;;;;36.94;30.99;99601.29;1754317;79;21502;-62
2022/08/06 14:52:15;;;;;;;5.80;3.90;;;;;;;36.82;30.92;99603.50;1792096;78;22193;-65
2022/08/06 14:54:42;;;;;;;4.42;4.12;;;;;;;36.68;30.88;99604.02;1792188;78;21488;-65
2022/08/06 14:57:10;;;;;;;4.80;4.03;;;;;;;36.58;30.94;99599.92;1797162;78;21524;-65
2022/08/06 14:59:37;;;;;;;4.42;4.03;;;;;;;36.52;31.07;99595.92;1786643;78;21448;-66
2022/08/06 15:02:03;;;;;;;4.50;4.10;;;;;;;36.52;30.90;99598.66;1762897;78;21412;-66
2022/08/06 15:04:30;;;;;;;4.20;3.80;;;;;;;36.48;31.09;99589.26;1760684;79;21763;-68
2022/08/06 15:06:56;;;;;;;8.10;3.75;;;;;;;36.50;31.46;99593.41;1765493;78;21571;-67
2022/08/06 15:09:23;;;;;;;4.87;4.30;;;;;;;36.47;31.38;99594.42;1782021;78;21415;-63
2022/08/06 15:11:49;;;;;;;5.70;3.92;;;;;;;36.47;31.27;99595.79;1777322;78;21492;-64
2022/08/06 15:14:17;;;;;;;5.05;4.37;;;;;;;36.56;31.20;99588.38;1767181;78;21486;-64
2022/08/06 15:16:43;;;;;;;4.25;3.95;;;;;;;36.74;31.10;99587.98;1771095;78;21815;-65
2022/08/06 15:19:10;;;;;;;4.62;4.33;;;;;;;36.77;31.00;99595.70;1770645;78;21488;-65
2022/08/06 15:21:37;;;;;;;4.95;4.55;;;;;;;37.00;31.04;99586.66;1775302;79;21499;-64
2022/08/06 15:24:04;;;;;;;4.90;4.37;;;;;;;37.39;30.71;99589.67;1776553;79;21443;-64
2022/08/06 15:26:31;;;;;;;4.40;4.05;;;;;;;38.23;29.36;99591.02;1755170;79;21490;-63
2022/08/06 15:28:58;;;;;;;4.50;4.20;;;;;;;39.31;28.34;99586.05;1774011;78;21787;-64
2022/08/06 15:31:24;;;;;;;7.17;4.35;;;;;;;40.41;26.88;99582.24;1778867;78;21535;-64
2022/08/06 15:33:51;;;;;;;6.95;4.35;;;;;;;41.35;25.93;99580.30;1778511;78;21596;-63
2022/08/06 15:36:17;;;;;;;4.47;4.08;;;;;;;42.16;25.03;99577.46;1768634;78;21424;-65
2022/08/06 15:38:44;;;;;;;4.65;4.25;;;;;;;42.87;24.08;99583.45;1779988;77;21548;-64
2022/08/06 15:41:10;;;;;;;4.60;4.20;;;;;;;43.28;23.49;99573.66;1753054;80;21621;-64
2022/08/06 15:43:37;;;;;;;8.70;4.10;;;;;;;43.67;23.05;99580.40;1758732;78;21423;-64
2022/08/06 15:46:03;;;;;;;7.45;4.50;;;;;;;44.03;22.60;99571.30;1770126;79;21572;-65
2022/08/06 15:48:30;;;;;;;;;;;;;;;44.15;22.59;99578.43;1790495;79;21558;-64
2022/08/06 15:50:58;;;;;;;5.67;3.75;;;;;;;43.74;22.89;99577.61;1777781;78;20463;-63
2022/08/06 15:53:25;;;;;;;6.33;4.30;;;;;;;42.90;23.91;99578.80;1761614;78;21763;-64
2022/08/06 15:55:51;;;;;;;4.30;3.90;;;;;;;41.98;25.21;99578.81;1769104;79;21608;-64
2022/08/06 15:58:18;;;;;;;4.60;3.77;;;;;;;40.36;25.91;99583.57;1765033;78;21413;-66
2022/08/06 16:00:44;;;;;;;4.12;3.72;;;;;;;40.36;25.91;99583.57;1779806;77;20949;-64
2022/08/06 16:03:11;;;;;;;4.70;4.20;;;;;;;39.68;26.76;99574.92;1787235;78;21521;-64
2022/08/06 16:05:40;;;;;;;6.80;4.55;;;;;;;39.05;27.81;99581.29;1765076;78;22027;-64
2022/08/06 16:08:09;;;;;;;5.70;4.10;;;;;;;38.41;28.46;99578.94;1741721;79;21463;-64
2022/08/06 16:10:44;;;;;;;7.30;4.17;;;;;;;37.85;28.97;99589.78;1752628;78;21426;-64
2022/08/06 16:13:17;;;;;;;5.85;5.05;;;;;;;37.43;30.41;99591.39;1746176;80;21553;-64
2022/08/06 16:15:42;;;;;;;4.75;4.22;;;;;;;36.92;31.30;99590.59;1762463;79;21096;-63
2022/08/06 16:18:08;;;;;;;9.43;4.10;;;;;;;36.42;32.15;99591.86;1759319;80;22173;-63
2022/08/06 16:20:35;;;;;;;6.22;4.42;;;;;;;36.00;33.29;99594.62;1723679;81;21477;-63
2022/08/06 16:23:02;;;;;;;5.22;4.22;;;;;;;35.58;33.52;99591.80;1704214;82;21454;-63
2022/08/06 16:25:29;;;;;;;4.85;4.47;;;;;;;35.12;33.80;99593.20;1727599;80;21531;-63
2022/08/06 16:27:55;;;;;;;5.87;4.50;;;;;;;34.79;34.46;99599.00;1722754;80;21597;-63
2022/08/06 16:30:22;;;;;;;5.35;4.42;;;;;;;34.53;34.99;99602.27;1721727;81;21884;-63
2022/08/06 16:32:49;;;;;;;11.50;4.72;;;;;;;34.21;35.91;99603.68;1715488;81;21441;-63
2022/08/06 16:35:17;;;;;;;5.22;4.83;;;;;;;33.93;37.02;99609.51;1711370;80;21428;-63
2022/08/06 16:37:44;;;;;;;5.12;4.72;;;;;;;33.59;37.81;99610.18;1708442;81;21451;-63
2022/08/06 16:40:11;;;;;;;8.30;5.37;;;;;;;33.40;37.99;99611.08;1711129;81;21030;-63
2022/08/06 16:42:38;;;;;;;6.05;4.87;;;;;;;33.09;38.40;99608.01;1711539;82;21435;-64
2022/08/06 16:45:07;;;;;;;8.13;6.12;;;;;;;32.85;39.04;99609.55;1711215;82;21641;-64
2022/08/06 16:47:33;;;;;;;7.12;6.50;;;;;;;32.69;39.90;99612.17;1678250;82;21487;-63
2022/08/06 16:50:00;;;;;;;6.20;5.17;;;;;;;32.47;41.09;99616.95;1754636;79;21547;-64
2022/08/06 16:52:26;;;;;;;8.15;5.12;;;;;;;32.44;40.78;99617.89;1761658;79;21631;-63
2022/08/06 16:54:53;;;;;;;9.60;7.93;;;;;;;32.13;41.55;99619.34;1768825;79;21925;-63
2022/08/06 16:57:19;;;;;;;13.00;10.10;;;;;;;31.89;41.70;99625.66;1774812;78;21512;-63
2022/08/06 16:59:46;;;;;;;9.65;8.75;;;;;;;31.80;41.88;99623.62;1773641;78;21578;-63
2022/08/06 17:04:57;;;;;;;8.23;7.42;;;;;;;31.18;43.86;99640.88;1777489;78;21501;-62
2022/08/06 17:07:24;;;;;;;8.80;7.83;;;;;;;30.93;45.18;99645.92;1759515;79;22048;-62
2022/08/06 17:09:51;;;;;;;8.78;6.92;;;;;;;30.99;45.66;99647.34;1727585;80;21432;-63
2022/08/06 17:12:17;;;;;;;10.20;7.03;;;;;;;30.76;46.22;99658.42;1728049;81;21535;-63
2022/08/06 17:14:44;;;;;;;6.25;5.83;;;;;;;30.64;46.47;99655.91;1772950;79;21770;-63
2022/08/06 17:17:10;;;;;;;6.57;5.87;;;;;;;30.75;46.36;99662.69;1780106;77;21429;-63
2022/08/06 17:19:37;;;;;;;8.13;6.27;;;;;;;30.56;46.67;99663.67;1777012;78;21779;-63
2022/08/06 17:22:04;;;;;;;6.70;6.20;;;;;;;30.32;47.19;99667.61;1765322;79;21779;-62
2022/08/06 17:24:33;;;;;;;6.25;5.67;;;;;;;30.27;47.25;99667.31;1774767;79;21116;-63
2022/08/06 17:26:59;;;;;;;6.67;5.95;;;;;;;30.26;47.45;99665.65;1786100;79;21530;-62
2022/08/06 17:29:26;;;;;;;10.03;6.05;;;;;;;30.11;48.13;99671.13;1770052;77;21069;-62
2022/08/06 17:31:52;;;;;;;6.55;5.95;;;;;;;29.95;48.44;99665.93;1775063;78;21761;-63
2022/08/06 17:34:19;;;;;;;5.95;5.35;;;;;;;29.87;48.59;99667.72;1779777;78;21616;-62
2022/08/06 17:36:45;;;;;;;6.53;5.55;;;;;;;29.77;48.73;99669.91;1775602;78;21470;-63
2022/08/06 17:39:12;;;;;;;5.70;5.30;;;;;;;29.52;48.86;99669.36;1771753;78;20934;-63
2022/08/06 17:41:38;;;;;;;7.75;4.87;;;;;;;29.44;49.07;99674.36;1778055;79;21539;-63
2022/08/06 17:44:05;;;;;;;6.53;5.55;;;;;;;29.36;49.13;99673.08;1768405;79;21905;-62
2022/08/06 17:46:32;;;;;;;6.13;5.37;;;;;;;29.28;49.49;99676.72;1763370;78;21533;-61
2022/08/06 17:48:58;;;;;;;5.58;5.15;;;;;;;29.27;49.85;99685.03;1769399;78;21514;-61
2022/08/06 17:51:25;;;;;;;6.10;5.50;;;;;;;29.30;49.55;99671.96;1773251;78;21493;-61
2022/08/06 17:53:53;;;;;;;5.83;5.22;;;;;;;29.33;49.76;99675.31;1775708;78;21571;-62
2022/08/06 17:56:21;;;;;;;5.50;5.03;;;;;;;29.29;50.01;99678.42;1781628;78;22188;-61
2022/08/06 17:58:47;;;;;;;6.55;5.87;;;;;;;29.22;50.28;99680.19;1772529;78;21715;-60
2022/08/06 18:01:17;;;;;;;5.80;5.30;;;;;;;29.10;50.89;99687.90;1790624;78;21434;-60
2022/08/06 18:03:44;;;;;;;6.15;5.10;;;;;;;29.07;50.95;99690.97;1784161;78;20951;-60
2022/08/06 18:06:11;;;;;;;7.17;5.53;;;;;;;28.93;51.75;99698.53;1786213;78;21441;-60
2022/08/06 18:08:38;;;;;;;6.33;5.70;;;;;;;28.84;51.85;99706.39;1768930;79;21856;-60
2022/08/06 18:11:06;;;;;;;7.47;5.95;;;;;;;28.77;52.25;99706.30;1765150;78;21043;-60
2022/08/06 18:13:36;;;;;;;6.20;5.70;;;;;;;28.65;52.43;99703.68;1744222;80;21517;-63
2022/08/06 18:16:03;;;;;;;6.45;5.78;;;;;;;28.51;52.88;99712.05;1760365;79;21475;-62
2022/08/06 18:18:30;;;;;;;7.92;5.55;;;;;;;28.47;53.24;99712.09;1747877;80;21034;-62
2022/08/06 18:20:56;;;;;;;6.37;5.80;;;;;;;28.46;53.58;99718.50;1767190;79;21876;-63
2022/08/06 18:23:23;;;;;;;6.22;5.33;;;;;;;28.39;53.98;99725.64;1741393;79;21120;-62
2022/08/06 18:25:53;;;;;;;6.00;5.03;;;;;;;28.34;54.04;99728.38;1773670;77;21676;-62
2022/08/06 18:28:20;;;;;;;9.08;5.50;;;;;;;28.33;54.63;99736.66;1763074;78;21546;-62
2022/08/06 18:30:46;;;;;;;5.90;5.42;;;;;;;28.30;54.84;99727.05;1745993;79;21412;-62
2022/08/06 18:33:13;;;;;;;6.63;5.17;;;;;;;28.23;54.22;99726.08;1756764;79;21800;-62
2022/08/06 18:35:40;;;;;;;7.07;5.57;;;;;;;28.11;54.18;99726.17;1764685;79;21021;-62
2022/08/06 18:38:06;;;;;;;6.83;6.12;;;;;;;28.16;54.56;99725.10;1755081;78;21455;-63
2022/08/06 18:40:33;;;;;;;5.97;5.30;;;;;;;27.89;54.99;99731.84;1714921;80;21009;-63
2022/08/06 18:43:02;;;;;;;6.85;6.25;;;;;;;27.96;54.97;99733.66;1726320;80;21547;-62
2022/08/06 18:45:29;;;;;;;6.20;5.70;;;;;;;27.93;55.32;99731.33;1720359;81;21953;-62
2022/08/06 18:47:56;;;;;;;6.08;5.62;;;;;;;27.85;55.62;99735.37;1724672;81;21425;-63
2022/08/06 18:50:22;;;;;;;6.87;6.37;;;;;;;27.76;55.56;99733.72;1734399;79;21479;-62
2022/08/06 18:52:49;;;;;;;7.15;6.15;;;;;;;27.70;55.85;99734.42;1711123;81;21432;-61
2022/08/06 18:55:15;;;;;;;9.05;5.72;;;;;;;27.60;56.04;99735.14;1706717;81;21423;-62
2022/08/06 18:57:42;;;;;;;6.40;5.60;;;;;;;27.61;56.61;99745.75;1763965;77;21571;-61
2022/08/06 19:00:10;;;;;;;6.22;5.58;;;;;;;27.63;56.75;99740.17;1769892;78;21070;-63
2022/08/06 19:02:37;;;;;;;8.65;6.72;;;;;;;27.65;56.61;99742.19;1772404;78;21519;-63
2022/08/06 19:05:05;;;;;;;6.62;6.10;;;;;;;27.66;56.64;99733.92;1761253;79;21456;-63
2022/08/06 19:07:31;;;;;;;6.53;6.03;;;;;;;27.64;56.92;99741.87;1775241;78;21508;-64
2022/08/06 19:09:58;;;;;;;6.85;6.17;;;;;;;27.52;56.95;99742.25;1775539;79;21696;-63
2022/08/06 19:12:25;;;;;;;8.35;6.03;;;;;;;27.57;56.80;99739.84;1771892;78;21449;-62
2022/08/06 19:14:51;;;;;;;8.20;6.95;;;;;;;27.40;57.17;99740.91;1761664;78;21492;-63
2022/08/06 19:17:20;;;;;;;9.20;6.67;;;;;;;27.50;57.11;99742.06;1752281;79;21470;-63
2022/08/06 19:19:49;;;;;;;6.35;5.78;;;;;;;27.49;57.82;99744.45;1764843;79;21464;-62
2022/08/06 19:22:19;;;;;;;6.50;5.85;;;;;;;27.49;58.13;99743.93;1744712;79;21514;-62
2022/08/06 19:26:32;;;;;;;7.30;6.70;;;;;;;26.80;61.66;99758.30;1767337;78;23316;-61
2022/08/06 19:28:59;;;;;;;6.95;6.28;;;;;;;27.17;59.33;99751.56;1720018;81;21451;-60
2022/08/06 19:31:25;;;;;;;7.40;6.75;;;;;;;27.10;59.05;99745.16;1736009;81;21833;-61
2022/08/06 19:33:52;;;;;;;8.03;6.75;;;;;;;27.09;59.37;99755.11;1732549;81;21420;-61
2022/08/06 19:36:19;;;;;;;7.05;6.25;;;;;;;27.08;59.62;99752.06;1731978;80;21462;-61
2022/08/06 19:38:45;;;;;;;11.53;6.60;;;;;;;27.00;60.16;99753.42;1726965;81;21593;-61
2022/08/06 19:41:12;;;;;;;6.58;6.00;;;;;;;26.80;60.86;99753.78;1732995;81;21420;-61
2022/08/06 19:43:40;;;;;;;7.10;6.15;;;;;;;26.83;60.82;99757.14;1736229;81;22124;-61
2022/08/06 19:46:06;;;;;;;7.72;6.87;;;;;;;26.84;60.87;99756.11;1734334;81;21509;-61
2022/08/06 19:48:34;;;;;;;7.20;6.65;;;;;;;26.79;61.12;99757.47;1730991;81;21625;-60
2022/08/06 19:51:01;;;;;;;10.28;6.80;;;;;;;26.73;61.12;99759.98;1738925;81;21554;-61
2022/08/06 19:53:28;;;;;;;7.78;7.00;;;;;;;26.70;61.26;99754.94;1706879;81;21614;-61
2022/08/06 19:55:54;;;;;;;7.37;6.67;;;;;;;26.67;61.32;99760.14;1730539;81;21830;-63
2022/08/06 19:58:21;;;;;;;6.90;6.30;;;;;;;26.59;61.78;99756.06;1730351;81;21032;-62
2022/08/06 20:00:48;;;;;;;7.63;6.73;;;;;;;26.61;61.96;99745.98;1733841;81;21046;-61
2022/08/06 20:03:14;;;;;;;10.50;7.42;;;;;;;26.56;62.27;99751.86;1739268;81;22259;-62
2022/08/06 20:05:42;;;;;;;7.58;6.75;;;;;;;26.57;61.96;99752.70;1731398;81;21420;-62
2022/08/06 20:08:10;;;;;;;7.42;6.85;;;;;;;26.49;62.03;99754.88;1731271;81;21558;-62
2022/08/06 20:10:37;;;;;;;9.08;6.72;;;;;;;26.45;62.46;99754.01;1735706;81;21540;-61
2022/08/06 20:13:05;;;;;;;7.10;6.50;;;;;;;26.34;62.69;99756.02;1682164;81;21509;-61
2022/08/06 20:15:32;;;;;;;7.92;7.20;;;;;;;26.30;63.28;99760.58;1728481;80;21537;-62
2022/08/06 20:18:02;;;;;;;7.37;6.85;;;;;;;26.29;63.43;99758.36;1735639;81;21421;-62